createdAt,value
2023-01-13T00:00:44.785Z,100184.25
2023-01-13T00:04:06.728Z,100176.69
2023-01-13T00:07:27.987Z,100184.78
2023-01-13T00:10:49.323Z,100179.47
2023-01-13T00:14:10.592Z,100182.13
2023-01-13T00:17:33.210Z,100204.41
2023-01-13T00:21:01.934Z,100176.97
2023-01-13T00:24:23.775Z,100192.34
2023-01-13T00:27:45.451Z,100181.31
2023-01-13T00:31:08.534Z,100186.22
2023-01-13T00:34:31.743Z,100186.75
2023-01-13T00:37:53.506Z,100180.16
2023-01-13T00:41:17.212Z,100177.50
2023-01-13T00:44:37.411Z,100189.56
2023-01-13T00:47:58.536Z,100155.22
2023-01-13T00:51:22.744Z,100173.59
2023-01-13T00:54:44.510Z,100183.53
2023-01-13T00:58:06.227Z,100191.25
2023-01-13T01:01:27.397Z,100187.59
2023-01-13T01:04:49.137Z,100191.94
2023-01-13T01:08:12.301Z,100189.28
2023-01-13T01:11:34.157Z,100184.66
2023-01-13T01:14:55.636Z,100186.31
2023-01-13T01:18:16.968Z,100196.13
2023-01-13T01:21:39.005Z,100192.34
2023-01-13T01:25:01.716Z,100198.78
2023-01-13T01:28:23.413Z,100198.50
2023-01-13T01:31:44.782Z,100189.81
2023-01-13T01:35:07.627Z,100200.34
2023-01-13T01:38:29.021Z,100198.25
2023-01-13T01:42:09.329Z,100188.44
2023-01-13T01:45:31.583Z,100193.75
2023-01-13T01:48:52.944Z,100189.69
2023-01-13T01:52:18.030Z,100190.38
2023-01-13T01:55:40.592Z,100183.91
2023-01-13T01:59:03.697Z,100183.63
2023-01-13T02:02:25.624Z,100180.00
2023-01-13T02:05:47.487Z,100173.88
2023-01-13T02:09:09.665Z,100170.22
2023-01-13T02:12:32.111Z,100163.91
2023-01-13T02:16:01.025Z,100162.22
2023-01-13T02:19:44.920Z,100163.91
2023-01-13T02:24:22.087Z,100165.59
2023-01-13T02:28:03.822Z,100155.78
2023-01-13T02:31:45.017Z,100147.94
2023-01-13T02:35:14.492Z,100152.41
2023-01-13T02:38:39.667Z,100144.59
2023-01-13T02:42:24.427Z,100146.34
2023-01-13T02:45:52.765Z,100144.69
2023-01-13T02:49:24.574Z,100146.53
2023-01-13T02:52:51.296Z,100138.66
2023-01-13T02:56:16.479Z,100143.44
2023-01-13T02:59:40.192Z,100146.13
2023-01-13T03:03:01.930Z,100143.16
2023-01-13T03:06:37.877Z,100128.88
2023-01-13T03:10:08.376Z,100140.50
2023-01-13T03:13:47.039Z,100134.19
2023-01-13T03:17:22.458Z,100131.66
2023-01-13T03:20:50.487Z,100131.13
2023-01-13T03:24:21.321Z,100131.13
2023-01-13T03:27:50.059Z,100125.81
2023-01-13T03:31:17.005Z,100116.97
2023-01-13T03:34:45.956Z,100116.97
2023-01-13T03:38:12.987Z,100135.47
2023-01-13T03:41:41.469Z,100123.16
2023-01-13T03:45:09.212Z,100137.28
2023-01-13T03:48:35.409Z,100136.16
2023-01-13T03:52:02.967Z,100129.84
2023-01-13T03:55:31.137Z,100126.22
2023-01-13T03:58:55.528Z,100125.22
2023-01-13T04:02:24.043Z,100123.28
2023-01-13T04:05:52.712Z,100125.94
2023-01-13T04:09:22.074Z,100117.78
2023-01-13T04:13:01.745Z,100123.97
2023-01-13T04:16:24.981Z,100127.72
2023-01-13T04:19:46.837Z,100118.06
2023-01-13T04:23:08.698Z,100112.63
2023-01-13T04:26:30.208Z,100122.16
2023-01-13T04:29:51.361Z,100125.78
2023-01-13T04:33:15.425Z,100122.00
2023-01-13T04:36:37.275Z,100115.00
2023-01-13T04:39:58.841Z,100102.09
2023-01-13T04:43:20.183Z,100113.47
2023-01-13T04:46:43.099Z,100107.88
2023-01-13T04:50:06.910Z,100113.03
2023-01-13T04:53:28.406Z,100127.34
2023-01-13T04:56:49.766Z,100116.56
2023-01-13T05:00:14.172Z,100123.38
2023-01-13T05:03:35.654Z,100127.59
2023-01-13T05:06:58.906Z,100123.09
2023-01-13T05:10:23.653Z,100128.41
2023-01-13T05:14:02.906Z,100133.75
2023-01-13T05:17:26.341Z,100138.25
2023-01-13T05:20:48.022Z,100142.88
2023-01-13T05:24:40.087Z,100154.50
2023-01-13T05:28:01.851Z,100157.31
2023-01-13T05:31:23.143Z,100157.47
2023-01-13T05:34:44.660Z,100158.97
2023-01-13T05:38:06.026Z,100147.66
2023-01-13T05:41:46.298Z,100150.31
2023-01-13T05:45:08.793Z,100146.94
2023-01-13T05:48:33.027Z,100147.09
2023-01-13T05:51:54.422Z,100143.31
2023-01-13T05:55:16.326Z,100148.63
2023-01-13T05:58:39.224Z,100171.91
2023-01-13T06:02:00.546Z,100164.16
2023-01-13T06:05:22.251Z,100163.31
2023-01-13T06:08:43.551Z,100163.31
2023-01-13T06:12:05.599Z,100182.53
2023-01-13T06:15:28.834Z,100191.50
2023-01-13T06:18:50.711Z,100199.38
2023-01-13T06:22:16.711Z,100196.53
2023-01-13T06:25:43.751Z,100210.03
2023-01-13T06:29:05.621Z,100215.47
2023-01-13T06:32:33.467Z,100213.47
2023-01-13T06:36:01.078Z,100195.00
2023-01-13T06:39:26.120Z,100192.94
2023-01-13T06:43:05.158Z,100187.59
2023-01-13T06:46:27.077Z,100184.78
2023-01-13T06:49:50.462Z,100168.00
2023-01-13T06:53:11.966Z,100178.91
2023-01-13T06:56:33.342Z,100190.69
2023-01-13T06:59:55.155Z,100203.84
2023-01-13T07:03:18.963Z,100213.81
2023-01-13T07:06:44.054Z,100192.53
2023-01-13T07:10:05.758Z,100188.19
2023-01-13T07:13:50.404Z,100207.63
2023-01-13T07:17:11.921Z,100211.28
2023-01-13T07:20:33.919Z,100204.97
2023-01-13T07:23:57.162Z,100222.19
2023-01-13T07:27:19.097Z,100232.84
2023-01-13T07:30:41.290Z,100234.09
2023-01-13T07:34:03.189Z,100239.72
2023-01-13T07:37:24.837Z,100222.88
2023-01-13T07:40:47.917Z,100204.44
2023-01-13T07:44:10.871Z,100181.47
2023-01-13T07:47:32.518Z,100227.66
2023-01-13T07:50:53.931Z,100226.81
2023-01-13T07:54:15.734Z,100213.78
2023-01-13T07:57:39.093Z,100215.63
2023-01-13T08:01:01.090Z,100215.63
2023-01-13T08:04:22.903Z,100222.06
2023-01-13T08:07:44.615Z,100223.19
2023-01-13T08:11:09.164Z,100223.31
2023-01-13T08:14:32.366Z,100226.69
2023-01-13T08:17:54.148Z,100226.97
2023-01-13T08:21:16.930Z,100218.13
2023-01-13T08:24:38.861Z,100223.44
2023-01-13T08:28:01.204Z,100232.13
2023-01-13T08:31:24.145Z,100235.50
2023-01-13T08:34:45.809Z,100248.66
2023-01-13T08:38:08.116Z,100251.19
2023-01-13T08:41:47.450Z,100271.34
2023-01-13T08:45:10.825Z,100263.22
2023-01-13T08:48:34.530Z,100255.78
2023-01-13T08:51:56.336Z,100228.09
2023-01-13T08:55:18.299Z,100230.47
2023-01-13T08:58:40.938Z,100240.81
2023-01-13T09:02:03.541Z,100261.81
2023-01-13T09:05:27.251Z,100247.41
2023-01-13T09:08:49.111Z,100247.97
2023-01-13T09:12:30.042Z,100266.59
2023-01-13T09:15:52.325Z,100273.59
2023-01-13T09:19:14.209Z,100274.44
2023-01-13T09:22:37.647Z,100278.63
2023-01-13T09:25:59.156Z,100259.00
2023-01-13T09:29:21.700Z,100236.03
2023-01-13T09:32:43.158Z,100205.53
2023-01-13T09:36:04.395Z,100227.38
2023-01-13T09:39:27.587Z,100222.59
2023-01-13T09:43:13.302Z,100208.31
2023-01-13T09:46:48.092Z,100232.81
2023-01-13T09:50:25.073Z,100245.28
2023-01-13T09:53:52.391Z,100243.34
2023-01-13T09:57:17.016Z,100241.38
2023-01-13T10:00:47.062Z,100241.22
2023-01-13T10:04:12.715Z,100232.44
2023-01-13T10:07:38.123Z,100239.44
2023-01-13T10:11:21.713Z,100236.03
2023-01-13T10:14:51.348Z,100235.91
2023-01-13T10:18:19.383Z,100228.88
2023-01-13T10:21:57.740Z,100230.72
2023-01-13T10:25:43.587Z,100232.44
2023-01-13T10:29:24.753Z,100228.78
2023-01-13T10:32:51.478Z,100235.19
2023-01-13T10:36:17.488Z,100237.31
2023-01-13T10:39:44.796Z,100234.78
2023-01-13T10:43:07.022Z,100232.13
2023-01-13T10:46:29.988Z,100241.94
2023-01-13T10:50:19.356Z,100244.59
2023-01-13T10:53:51.700Z,100248.25
2023-01-13T10:57:16.180Z,100242.75
2023-01-13T11:00:38.146Z,100245.44
2023-01-13T11:04:00.071Z,100253.28
2023-01-13T11:07:29.872Z,100252.59
2023-01-13T11:10:54.676Z,100239.28
2023-01-13T11:14:36.761Z,100242.63
2023-01-13T11:18:05.132Z,100246.13
2023-01-13T11:21:32.869Z,100251.44
2023-01-13T11:25:01.423Z,100245.44
2023-01-13T11:28:38.516Z,100248.09
2023-01-13T11:32:10.392Z,100239.13
2023-01-13T11:35:37.020Z,100247.09
2023-01-13T11:39:12.026Z,100249.91
2023-01-13T11:42:41.299Z,100247.25
2023-01-13T11:46:02.889Z,100256.06
2023-01-13T11:49:28.280Z,100252.59
2023-01-13T11:53:07.601Z,100243.47
2023-01-13T11:56:42.434Z,100237.31
2023-01-13T12:00:28.107Z,100243.63
2023-01-13T12:03:54.755Z,100244.31
2023-01-13T12:07:23.262Z,100247.25
2023-01-13T12:10:56.886Z,100244.31
2023-01-13T12:14:28.229Z,100244.16
2023-01-13T12:18:05.240Z,100246.69
2023-01-13T12:21:29.765Z,100245.00
2023-01-13T12:24:56.259Z,100249.47
2023-01-13T12:28:23.934Z,100245.00
2023-01-13T12:31:48.481Z,100249.22
2023-01-13T12:35:29.075Z,100242.09
2023-01-13T12:38:55.965Z,100254.41
2023-01-13T12:42:42.347Z,100251.16
2023-01-13T12:46:45.384Z,100257.75
2023-01-13T12:50:54.746Z,100263.78
2023-01-13T12:54:53.850Z,100263.94
2023-01-13T12:58:17.023Z,100269.94
2023-01-13T13:01:39.064Z,100265.59
2023-01-13T13:05:39.449Z,100267.56
2023-01-13T13:09:04.344Z,100277.53
2023-01-13T13:13:18.922Z,100272.19
2023-01-13T13:16:49.902Z,100277.53
2023-01-13T13:20:50.730Z,100279.91
2023-01-13T13:24:12.511Z,100296.84
2023-01-13T13:27:42.017Z,100294.88
2023-01-13T13:31:25.788Z,100286.50
2023-01-13T13:34:56.878Z,100283.13
2023-01-13T13:38:47.438Z,100292.63
2023-01-13T13:42:34.524Z,100290.84
2023-01-13T13:46:13.454Z,100303.84
2023-01-13T13:49:41.599Z,100305.53
2023-01-13T13:53:07.165Z,100296.84
2023-01-13T13:56:30.239Z,100299.50
2023-01-13T13:59:55.643Z,100296.44
2023-01-13T14:03:24.801Z,100306.94
2023-01-13T14:06:56.342Z,100306.53
2023-01-13T14:10:21.276Z,100301.72
2023-01-13T14:13:42.702Z,100300.91
2023-01-13T14:17:05.844Z,100308.19
2023-01-13T14:20:29.060Z,100304.84
2023-01-13T14:23:55.537Z,100303.03
2023-01-13T14:27:18.960Z,100317.31
2023-01-13T14:30:41.681Z,100311.84
2023-01-13T14:34:32.572Z,100320.66
2023-01-13T14:37:51.056Z,100310.28
2023-01-13T14:41:20.122Z,100312.00
2023-01-13T14:44:45.959Z,100317.16
2023-01-13T14:48:10.274Z,100318.53
2023-01-13T14:51:32.834Z,100310.13
2023-01-13T14:54:55.823Z,100305.66
2023-01-13T14:58:29.628Z,100304.81
2023-01-13T15:01:52.163Z,100304.69
2023-01-13T15:05:47.704Z,100309.84
2023-01-13T15:09:13.145Z,100308.06
2023-01-13T15:12:39.317Z,100313.38
2023-01-13T15:16:04.575Z,100324.84
2023-01-13T15:19:26.134Z,100326.09
2023-01-13T15:22:47.631Z,100323.72
2023-01-13T15:26:21.031Z,100324.69
2023-01-13T15:29:42.656Z,100335.22
2023-01-13T15:33:06.301Z,100332.84
2023-01-13T15:36:29.710Z,100338.88
2023-01-13T15:39:51.966Z,100344.31
2023-01-13T15:43:33.474Z,100339.00
2023-01-13T15:46:55.126Z,100331.16
2023-01-13T15:50:20.837Z,100342.09
2023-01-13T15:53:42.842Z,100346.41
2023-01-13T15:57:04.780Z,100339.25
2023-01-13T16:00:26.598Z,100334.81
2023-01-13T16:03:48.127Z,100339.97
2023-01-13T16:07:16.322Z,100341.09
2023-01-13T16:10:37.645Z,100352.84
2023-01-13T16:13:58.904Z,100354.81
2023-01-13T16:17:22.528Z,100357.88
2023-01-13T16:20:43.976Z,100361.22
2023-01-13T16:24:07.070Z,100368.22
2023-01-13T16:27:30.474Z,100365.72
2023-01-13T16:30:52.787Z,100368.22
2023-01-13T16:34:14.645Z,100357.75
2023-01-13T16:37:36.296Z,100361.09
2023-01-13T16:40:59.653Z,100369.09
2023-01-13T16:44:20.966Z,100364.88
2023-01-13T16:47:42.438Z,100371.75
2023-01-13T16:51:05.033Z,100366.69
2023-01-13T16:54:26.344Z,100375.50
2023-01-13T16:57:49.667Z,100376.75
2023-01-13T17:01:20.125Z,100370.72
2023-01-13T17:04:41.605Z,100376.47
2023-01-13T17:08:03.628Z,100377.69
2023-01-13T17:11:25.523Z,100394.50
2023-01-13T17:14:48.259Z,100405.00
2023-01-13T17:18:09.622Z,100394.19
2023-01-13T17:21:31.410Z,100413.09
2023-01-13T17:24:53.287Z,100417.69
2023-01-13T17:28:15.092Z,100442.03
2023-01-13T17:31:38.222Z,100428.88
2023-01-13T17:35:02.474Z,100431.91
2023-01-13T17:38:24.086Z,100438.81
2023-01-13T17:41:46.023Z,100448.19
2023-01-13T17:45:09.175Z,100436.59
2023-01-13T17:48:32.397Z,100453.25
2023-01-13T17:51:53.690Z,100453.25
2023-01-13T17:55:15.614Z,100453.41
2023-01-13T17:58:37.607Z,100458.38
2023-01-13T18:01:59.296Z,100470.00
2023-01-13T18:05:22.705Z,100463.97
2023-01-13T18:08:44.410Z,100461.31
2023-01-13T18:12:06.338Z,100473.31
2023-01-13T18:15:27.827Z,100469.59
2023-01-13T18:18:51.413Z,100471.28
2023-01-13T18:22:32.877Z,100467.63
2023-01-13T18:26:12.022Z,100473.50
2023-01-13T18:29:33.481Z,100485.81
2023-01-13T18:32:55.434Z,100490.16
2023-01-13T18:36:17.329Z,100489.44
2023-01-13T18:39:40.751Z,100488.47
2023-01-13T18:43:02.345Z,100489.44
2023-01-13T18:46:24.160Z,100493.78
2023-01-13T18:49:46.047Z,100499.38
2023-01-13T18:53:08.047Z,100503.72
2023-01-13T18:56:31.613Z,100483.41
2023-01-13T18:59:53.111Z,100487.19
2023-01-13T19:03:29.491Z,100496.97
2023-01-13T19:06:52.365Z,100501.47
2023-01-13T19:10:14.339Z,100515.47
2023-01-13T19:13:37.909Z,100519.66
2023-01-13T19:16:59.450Z,100535.03
2023-01-13T19:20:22.345Z,100532.50
2023-01-13T19:23:44.268Z,100522.84
2023-01-13T19:27:06.133Z,100530.81
2023-01-13T19:30:29.655Z,100532.63
2023-01-13T19:33:51.410Z,100547.72
2023-01-13T19:37:13.633Z,100549.94
2023-01-13T19:40:35.436Z,100554.97
2023-01-13T19:44:14.897Z,100547.47
2023-01-13T19:47:40.521Z,100549.03
2023-01-13T19:51:02.578Z,100554.47
2023-01-13T19:54:24.554Z,100561.72
2023-01-13T19:57:45.935Z,100569.13
2023-01-13T20:01:09.829Z,100571.66
2023-01-13T20:04:38.393Z,100562.69
2023-01-13T20:08:00.230Z,100562.69
2023-01-13T20:11:31.031Z,100559.06
2023-01-13T20:14:52.972Z,100579.50
2023-01-13T20:18:14.717Z,100573.84
2023-01-13T20:21:39.723Z,100580.72
2023-01-13T20:25:01.308Z,100582.41
2023-01-13T20:28:23.848Z,100592.66
2023-01-13T20:31:45.878Z,100597.25
2023-01-13T20:35:08.514Z,100603.78
2023-01-13T20:38:36.919Z,100608.03
2023-01-13T20:42:16.101Z,100606.34
2023-01-13T20:45:37.707Z,100605.84
2023-01-13T20:48:59.483Z,100616.47
2023-01-13T20:52:21.386Z,100610.44
2023-01-13T20:55:44.172Z,100600.94
2023-01-13T20:59:06.583Z,100608.28
2023-01-13T21:02:28.011Z,100608.19
2023-01-13T21:05:49.370Z,100606.09
2023-01-13T21:09:11.309Z,100616.88
2023-01-13T21:12:51.797Z,100621.47
2023-01-13T21:16:13.347Z,100610.84
2023-01-13T21:19:34.561Z,100616.41
2023-01-13T21:22:56.033Z,100611.19
2023-01-13T21:26:19.509Z,100616.66
2023-01-13T21:29:44.509Z,100614.81
2023-01-13T21:33:06.381Z,100626.56
2023-01-13T21:36:29.415Z,100614.47
2023-01-13T21:39:51.197Z,100630.91
2023-01-13T21:43:31.309Z,100656.66
2023-01-13T21:47:11.426Z,100648.94
2023-01-13T21:50:32.987Z,100639.25
2023-01-13T21:53:54.822Z,100655.44
2023-01-13T21:57:16.548Z,100651.09
2023-01-13T22:00:39.326Z,100658.22
2023-01-13T22:04:14.190Z,100661.84
2023-01-13T22:07:37.781Z,100670.16
2023-01-13T22:11:00.162Z,100661.22
2023-01-13T22:14:22.563Z,100674.41
2023-01-13T22:17:45.639Z,100663.78
2023-01-13T22:21:08.835Z,100671.25
2023-01-13T22:24:30.541Z,100685.75
2023-01-13T22:27:55.943Z,100687.44
2023-01-13T22:31:20.964Z,100685.03
2023-01-13T22:34:42.752Z,100697.19
2023-01-13T22:38:05.766Z,100705.41
2023-01-13T22:41:27.254Z,100700.25
2023-01-13T22:44:48.970Z,100700.25
2023-01-13T22:48:10.199Z,100707.00
2023-01-13T22:51:32.012Z,100710.38
2023-01-13T22:54:55.481Z,100713.03
2023-01-13T22:58:17.391Z,100732.34
2023-01-13T23:01:39.261Z,100734.13
2023-01-13T23:05:00.965Z,100742.25
2023-01-13T23:08:22.414Z,100749.47
2023-01-13T23:11:47.746Z,100757.78
2023-01-13T23:15:09.744Z,100766.63
2023-01-13T23:18:31.035Z,100758.88
2023-01-13T23:21:52.873Z,100763.22
2023-01-13T23:25:14.116Z,100757.91
2023-01-13T23:28:37.507Z,100754.41
2023-01-13T23:31:59.170Z,100755.47
2023-01-13T23:35:21.171Z,100754.91
2023-01-13T23:38:43.011Z,100755.22
2023-01-13T23:42:04.591Z,100748.97
2023-01-13T23:45:27.744Z,100744.84
2023-01-13T23:48:50.342Z,100748.81
2023-01-13T23:52:12.163Z,100747.13
2023-01-13T23:55:33.472Z,100747.97
2023-01-13T23:58:56.350Z,100765.38
